sensor_id;sensor_type;location;lat;lon;timestamp;P1;durP1;ratioP1;P2;durP2;ratioP2
60896;SDS011;46749;32.932;-117.130;2023-08-30T00:01:18;5.47;;;2.78;;
60896;SDS011;46749;32.932;-117.130;2023-08-30T00:03:45;5.57;;;3.33;;
60896;SDS011;46749;32.932;-117.130;2023-08-30T00:06:11;4.72;;;3.05;;
60896;SDS011;46749;32.932;-117.130;2023-08-30T00:08:37;5.30;;;2.97;;
60896;SDS011;46749;32.932;-117.130;2023-08-30T00:11:03;5.28;;;3.22;;
60896;SDS011;46749;32.932;-117.130;2023-08-30T00:13:30;5.40;;;3.25;;
60896;SDS011;46749;32.932;-117.130;2023-08-30T00:15:57;6.22;;;3.22;;
60896;SDS011;46749;32.932;-117.130;2023-08-30T00:18:24;5.15;;;2.88;;
60896;SDS011;46749;32.932;-117.130;2023-08-30T00:20:50;7.13;;;3.42;;
60896;SDS011;46749;32.932;-117.130;2023-08-30T00:23:16;4.57;;;2.95;;
60896;SDS011;46749;32.932;-117.130;2023-08-30T00:25:42;6.35;;;3.10;;
60896;SDS011;46749;32.932;-117.130;2023-08-30T00:28:08;5.32;;;3.13;;
60896;SDS011;46749;32.932;-117.130;2023-08-30T00:30:35;4.97;;;2.97;;
60896;SDS011;46749;32.932;-117.130;2023-08-30T00:33:01;4.50;;;2.83;;
60896;SDS011;46749;32.932;-117.130;2023-08-30T00:35:27;5.40;;;3.22;;
60896;SDS011;46749;32.932;-117.130;2023-08-30T00:37:53;4.90;;;3.13;;
60896;SDS011;46749;32.932;-117.130;2023-08-30T00:40:22;10.13;;;3.35;;
60896;SDS011;46749;32.932;-117.130;2023-08-30T00:42:51;6.20;;;3.33;;
60896;SDS011;46749;32.932;-117.130;2023-08-30T00:45:18;6.18;;;3.50;;
60896;SDS011;46749;32.932;-117.130;2023-08-30T00:47:44;5.07;;;2.83;;
60896;SDS011;46749;32.932;-117.130;2023-08-30T00:50:11;4.55;;;2.85;;
60896;SDS011;46749;32.932;-117.130;2023-08-30T00:52:38;4.93;;;2.45;;
60896;SDS011;46749;32.932;-117.130;2023-08-30T00:55:05;3.88;;;2.95;;
60896;SDS011;46749;32.932;-117.130;2023-08-30T00:57:32;3.70;;;2.55;;
60896;SDS011;46749;32.932;-117.130;2023-08-30T00:59:58;4.88;;;2.70;;
60896;SDS011;46749;32.932;-117.130;2023-08-30T01:02:25;4.82;;;2.90;;
60896;SDS011;46749;32.932;-117.130;2023-08-30T01:04:51;5.57;;;2.85;;
60896;SDS011;46749;32.932;-117.130;2023-08-30T01:07:18;6.25;;;3.22;;
60896;SDS011;46749;32.932;-117.130;2023-08-30T01:09:44;4.22;;;2.80;;
60896;SDS011;46749;32.932;-117.130;2023-08-30T01:12:17;7.50;;;3.05;;
60896;SDS011;46749;32.932;-117.130;2023-08-30T01:15:01;5.05;;;3.00;;
60896;SDS011;46749;32.932;-117.130;2023-08-30T01:17:36;5.28;;;2.80;;
60896;SDS011;46749;32.932;-117.130;2023-08-30T01:20:05;5.63;;;3.20;;
60896;SDS011;46749;32.932;-117.130;2023-08-30T01:28:27;4.95;;;2.80;;
60896;SDS011;46749;32.932;-117.130;2023-08-30T01:30:57;4.07;;;2.78;;
60896;SDS011;46749;32.932;-117.130;2023-08-30T01:33:25;5.75;;;3.25;;
60896;SDS011;46749;32.932;-117.130;2023-08-30T01:35:56;4.65;;;2.60;;
60896;SDS011;46749;32.932;-117.130;2023-08-30T01:38:25;4.38;;;2.60;;
60896;SDS011;46749;32.932;-117.130;2023-08-30T01:40:53;4.85;;;2.50;;
60896;SDS011;46749;32.932;-117.130;2023-08-30T01:43:22;4.03;;;2.40;;
60896;SDS011;46749;32.932;-117.130;2023-08-30T01:45:49;5.47;;;3.00;;
60896;SDS011;46749;32.932;-117.130;2023-08-30T01:48:16;5.07;;;2.75;;
60896;SDS011;46749;32.932;-117.130;2023-08-30T01:50:44;4.50;;;2.78;;
60896;SDS011;46749;32.932;-117.130;2023-08-30T01:53:11;4.35;;;2.83;;
60896;SDS011;46749;32.932;-117.130;2023-08-30T01:55:38;5.25;;;2.90;;
60896;SDS011;46749;32.932;-117.130;2023-08-30T01:58:05;5.93;;;3.25;;
60896;SDS011;46749;32.932;-117.130;2023-08-30T02:00:32;4.47;;;2.65;;
60896;SDS011;46749;32.932;-117.130;2023-08-30T02:02:59;4.85;;;2.80;;
60896;SDS011;46749;32.932;-117.130;2023-08-30T02:05:37;5.22;;;2.50;;
60896;SDS011;46749;32.932;-117.130;2023-08-30T02:08:14;5.20;;;2.60;;
60896;SDS011;46749;32.932;-117.130;2023-08-30T02:10:48;4.40;;;3.00;;
60896;SDS011;46749;32.932;-117.130;2023-08-30T02:13:22;5.72;;;2.53;;
60896;SDS011;46749;32.932;-117.130;2023-08-30T02:15:52;5.07;;;2.70;;
60896;SDS011;46749;32.932;-117.130;2023-08-30T02:18:25;3.35;;;2.50;;
60896;SDS011;46749;32.932;-117.130;2023-08-30T02:20:52;3.80;;;2.55;;
60896;SDS011;46749;32.932;-117.130;2023-08-30T02:23:22;3.83;;;2.78;;
60896;SDS011;46749;32.932;-117.130;2023-08-30T02:25:50;3.35;;;2.10;;
60896;SDS011;46749;32.932;-117.130;2023-08-30T02:28:16;2.63;;;1.95;;
60896;SDS011;46749;32.932;-117.130;2023-08-30T02:30:42;4.20;;;2.63;;
60896;SDS011;46749;32.932;-117.130;2023-08-30T02:33:08;4.20;;;2.58;;
60896;SDS011;46749;32.932;-117.130;2023-08-30T02:35:35;4.20;;;2.85;;
60896;SDS011;46749;32.932;-117.130;2023-08-30T02:38:01;3.92;;;2.50;;
60896;SDS011;46749;32.932;-117.130;2023-08-30T02:40:30;3.30;;;2.45;;
60896;SDS011;46749;32.932;-117.130;2023-08-30T02:42:59;8.90;;;2.53;;
60896;SDS011;46749;32.932;-117.130;2023-08-30T02:45:26;4.18;;;2.75;;
60896;SDS011;46749;32.932;-117.130;2023-08-30T02:47:54;3.83;;;2.88;;
60896;SDS011;46749;32.932;-117.130;2023-08-30T02:50:24;3.45;;;2.35;;
60896;SDS011;46749;32.932;-117.130;2023-08-30T02:52:51;4.90;;;2.55;;
60896;SDS011;46749;32.932;-117.130;2023-08-30T02:55:18;3.10;;;2.13;;
60896;SDS011;46749;32.932;-117.130;2023-08-30T02:57:44;4.45;;;2.85;;
60896;SDS011;46749;32.932;-117.130;2023-08-30T03:00:11;4.03;;;2.50;;
60896;SDS011;46749;32.932;-117.130;2023-08-30T03:02:38;4.10;;;2.25;;
60896;SDS011;46749;32.932;-117.130;2023-08-30T03:05:04;3.53;;;2.25;;
60896;SDS011;46749;32.932;-117.130;2023-08-30T03:07:31;3.47;;;2.03;;
60896;SDS011;46749;32.932;-117.130;2023-08-30T03:09:57;4.13;;;2.67;;
60896;SDS011;46749;32.932;-117.130;2023-08-30T03:12:23;3.75;;;2.47;;
60896;SDS011;46749;32.932;-117.130;2023-08-30T03:14:50;2.92;;;2.38;;
60896;SDS011;46749;32.932;-117.130;2023-08-30T03:17:16;3.60;;;2.53;;
60896;SDS011;46749;32.932;-117.130;2023-08-30T03:19:42;3.40;;;1.92;;
60896;SDS011;46749;32.932;-117.130;2023-08-30T03:22:08;3.30;;;2.28;;
60896;SDS011;46749;32.932;-117.130;2023-08-30T03:24:35;3.28;;;2.38;;
60896;SDS011;46749;32.932;-117.130;2023-08-30T03:27:01;4.63;;;2.40;;
60896;SDS011;46749;32.932;-117.130;2023-08-30T03:29:28;3.95;;;2.50;;
60896;SDS011;46749;32.932;-117.130;2023-08-30T03:31:54;2.88;;;1.90;;
60896;SDS011;46749;32.932;-117.130;2023-08-30T03:34:20;4.70;;;2.53;;
60896;SDS011;46749;32.932;-117.130;2023-08-30T03:36:47;3.20;;;2.10;;
60896;SDS011;46749;32.932;-117.130;2023-08-30T03:39:22;3.60;;;2.20;;
60896;SDS011;46749;32.932;-117.130;2023-08-30T03:41:49;3.70;;;2.35;;
60896;SDS011;46749;32.932;-117.130;2023-08-30T03:44:16;3.92;;;2.42;;
60896;SDS011;46749;32.932;-117.130;2023-08-30T03:46:42;3.63;;;2.38;;
60896;SDS011;46749;32.932;-117.130;2023-08-30T03:49:08;3.63;;;2.10;;
60896;SDS011;46749;32.932;-117.130;2023-08-30T03:51:35;3.15;;;2.08;;
60896;SDS011;46749;32.932;-117.130;2023-08-30T03:54:01;3.15;;;1.90;;
60896;SDS011;46749;32.932;-117.130;2023-08-30T03:56:27;3.45;;;1.92;;
60896;SDS011;46749;32.932;-117.130;2023-08-30T03:58:53;3.33;;;2.20;;
60896;SDS011;46749;32.932;-117.130;2023-08-30T04:01:19;3.60;;;1.98;;
60896;SDS011;46749;32.932;-117.130;2023-08-30T04:03:45;3.10;;;2.25;;
60896;SDS011;46749;32.932;-117.130;2023-08-30T04:06:12;3.13;;;2.10;;
60896;SDS011;46749;32.932;-117.130;2023-08-30T04:08:38;3.60;;;2.10;;
60896;SDS011;46749;32.932;-117.130;2023-08-30T04:11:04;3.17;;;2.17;;
60896;SDS011;46749;32.932;-117.130;2023-08-30T04:13:30;2.88;;;1.98;;
60896;SDS011;46749;32.932;-117.130;2023-08-30T04:15:56;2.63;;;2.08;;
60896;SDS011;46749;32.932;-117.130;2023-08-30T04:18:24;2.63;;;1.88;;
60896;SDS011;46749;32.932;-117.130;2023-08-30T04:20:50;3.00;;;2.03;;
60896;SDS011;46749;32.932;-117.130;2023-08-30T04:23:16;3.88;;;2.40;;
60896;SDS011;46749;32.932;-117.130;2023-08-30T04:25:43;2.63;;;2.03;;
60896;SDS011;46749;32.932;-117.130;2023-08-30T04:28:10;3.05;;;2.17;;
60896;SDS011;46749;32.932;-117.130;2023-08-30T04:30:37;5.18;;;2.22;;
60896;SDS011;46749;32.932;-117.130;2023-08-30T04:33:04;5.28;;;2.60;;
60896;SDS011;46749;32.932;-117.130;2023-08-30T04:35:31;2.92;;;2.10;;
60896;SDS011;46749;32.932;-117.130;2023-08-30T04:38:00;2.92;;;2.17;;
60896;SDS011;46749;32.932;-117.130;2023-08-30T04:40:28;3.78;;;2.13;;
60896;SDS011;46749;32.932;-117.130;2023-08-30T04:42:55;2.95;;;1.95;;
60896;SDS011;46749;32.932;-117.130;2023-08-30T04:45:23;3.45;;;2.00;;
60896;SDS011;46749;32.932;-117.130;2023-08-30T04:47:49;3.63;;;2.20;;
60896;SDS011;46749;32.932;-117.130;2023-08-30T04:50:15;5.15;;;2.00;;
60896;SDS011;46749;32.932;-117.130;2023-08-30T04:52:42;2.60;;;1.98;;
60896;SDS011;46749;32.932;-117.130;2023-08-30T04:55:08;2.47;;;2.03;;
60896;SDS011;46749;32.932;-117.130;2023-08-30T04:57:35;3.50;;;2.25;;
60896;SDS011;46749;32.932;-117.130;2023-08-30T05:00:01;3.13;;;2.08;;
60896;SDS011;46749;32.932;-117.130;2023-08-30T05:02:30;2.22;;;1.67;;
60896;SDS011;46749;32.932;-117.130;2023-08-30T05:04:57;3.20;;;2.30;;
60896;SDS011;46749;32.932;-117.130;2023-08-30T05:07:23;3.00;;;2.10;;
60896;SDS011;46749;32.932;-117.130;2023-08-30T05:09:49;2.13;;;1.75;;
60896;SDS011;46749;32.932;-117.130;2023-08-30T05:12:16;2.85;;;2.25;;
60896;SDS011;46749;32.932;-117.130;2023-08-30T05:14:42;3.70;;;2.30;;
60896;SDS011;46749;32.932;-117.130;2023-08-30T05:17:08;2.65;;;1.98;;
60896;SDS011;46749;32.932;-117.130;2023-08-30T05:19:34;2.97;;;1.95;;
60896;SDS011;46749;32.932;-117.130;2023-08-30T05:22:00;2.10;;;1.90;;
60896;SDS011;46749;32.932;-117.130;2023-08-30T05:24:26;3.67;;;2.10;;
60896;SDS011;46749;32.932;-117.130;2023-08-30T05:26:53;3.25;;;2.00;;
60896;SDS011;46749;32.932;-117.130;2023-08-30T05:29:20;5.05;;;2.20;;
60896;SDS011;46749;32.932;-117.130;2023-08-30T05:31:46;3.58;;;2.17;;
60896;SDS011;46749;32.932;-117.130;2023-08-30T05:34:12;3.47;;;1.98;;
60896;SDS011;46749;32.932;-117.130;2023-08-30T05:36:38;3.17;;;1.92;;
60896;SDS011;46749;32.932;-117.130;2023-08-30T05:39:04;3.33;;;2.17;;
60896;SDS011;46749;32.932;-117.130;2023-08-30T05:41:31;4.00;;;2.58;;
60896;SDS011;46749;32.932;-117.130;2023-08-30T05:43:57;3.75;;;2.35;;
60896;SDS011;46749;32.932;-117.130;2023-08-30T05:46:24;3.45;;;1.92;;
60896;SDS011;46749;32.932;-117.130;2023-08-30T05:48:50;3.53;;;1.98;;
60896;SDS011;46749;32.932;-117.130;2023-08-30T05:51:16;3.35;;;2.13;;
60896;SDS011;46749;32.932;-117.130;2023-08-30T05:53:42;3.65;;;2.20;;
60896;SDS011;46749;32.932;-117.130;2023-08-30T05:56:09;2.85;;;2.17;;
60896;SDS011;46749;32.932;-117.130;2023-08-30T05:58:35;3.78;;;1.88;;
60896;SDS011;46749;32.932;-117.130;2023-08-30T06:01:03;4.35;;;2.42;;
60896;SDS011;46749;32.932;-117.130;2023-08-30T06:03:31;2.70;;;2.22;;
60896;SDS011;46749;32.932;-117.130;2023-08-30T06:05:58;3.22;;;2.20;;
60896;SDS011;46749;32.932;-117.130;2023-08-30T06:08:24;3.83;;;2.30;;
60896;SDS011;46749;32.932;-117.130;2023-08-30T06:10:50;3.05;;;1.95;;
60896;SDS011;46749;32.932;-117.130;2023-08-30T06:13:16;2.97;;;2.10;;
60896;SDS011;46749;32.932;-117.130;2023-08-30T06:15:42;3.55;;;1.80;;
60896;SDS011;46749;32.932;-117.130;2023-08-30T06:18:10;4.13;;;2.50;;
60896;SDS011;46749;32.932;-117.130;2023-08-30T06:20:39;3.80;;;2.28;;
60896;SDS011;46749;32.932;-117.130;2023-08-30T06:23:07;3.60;;;2.00;;
60896;SDS011;46749;32.932;-117.130;2023-08-30T06:25:33;4.00;;;2.17;;
60896;SDS011;46749;32.932;-117.130;2023-08-30T06:27:59;3.60;;;2.33;;
60896;SDS011;46749;32.932;-117.130;2023-08-30T06:30:30;4.45;;;2.60;;
60896;SDS011;46749;32.932;-117.130;2023-08-30T06:32:56;3.33;;;1.90;;
60896;SDS011;46749;32.932;-117.130;2023-08-30T06:35:23;4.38;;;2.30;;
60896;SDS011;46749;32.932;-117.130;2023-08-30T06:37:49;3.20;;;2.10;;
60896;SDS011;46749;32.932;-117.130;2023-08-30T06:40:16;3.58;;;2.13;;
60896;SDS011;46749;32.932;-117.130;2023-08-30T06:42:42;2.53;;;1.98;;
60896;SDS011;46749;32.932;-117.130;2023-08-30T06:45:08;4.35;;;2.45;;
60896;SDS011;46749;32.932;-117.130;2023-08-30T06:47:35;2.22;;;1.98;;
60896;SDS011;46749;32.932;-117.130;2023-08-30T06:50:01;4.15;;;2.33;;
60896;SDS011;46749;32.932;-117.130;2023-08-30T06:52:29;3.88;;;2.50;;
60896;SDS011;46749;32.932;-117.130;2023-08-30T06:54:55;3.97;;;2.30;;
60896;SDS011;46749;32.932;-117.130;2023-08-30T06:57:21;3.30;;;2.22;;
60896;SDS011;46749;32.932;-117.130;2023-08-30T06:59:47;3.38;;;2.30;;
60896;SDS011;46749;32.932;-117.130;2023-08-30T07:02:13;4.15;;;2.50;;
60896;SDS011;46749;32.932;-117.130;2023-08-30T07:04:39;4.25;;;2.30;;
60896;SDS011;46749;32.932;-117.130;2023-08-30T07:07:05;3.40;;;2.40;;
60896;SDS011;46749;32.932;-117.130;2023-08-30T07:09:32;3.70;;;2.28;;
60896;SDS011;46749;32.932;-117.130;2023-08-30T07:11:58;3.55;;;2.22;;
60896;SDS011;46749;32.932;-117.130;2023-08-30T07:14:25;3.45;;;2.60;;
60896;SDS011;46749;32.932;-117.130;2023-08-30T07:16:51;3.30;;;2.50;;
60896;SDS011;46749;32.932;-117.130;2023-08-30T07:19:17;3.40;;;2.28;;
60896;SDS011;46749;32.932;-117.130;2023-08-30T07:21:44;4.80;;;2.50;;
60896;SDS011;46749;32.932;-117.130;2023-08-30T07:24:10;4.03;;;2.72;;
60896;SDS011;46749;32.932;-117.130;2023-08-30T07:26:37;4.70;;;2.40;;
60896;SDS011;46749;32.932;-117.130;2023-08-30T07:29:03;4.50;;;2.67;;
60896;SDS011;46749;32.932;-117.130;2023-08-30T07:31:33;4.45;;;2.63;;
60896;SDS011;46749;32.932;-117.130;2023-08-30T07:33:59;3.63;;;2.70;;
60896;SDS011;46749;32.932;-117.130;2023-08-30T07:36:26;3.25;;;2.50;;
60896;SDS011;46749;32.932;-117.130;2023-08-30T07:38:53;4.47;;;2.55;;
60896;SDS011;46749;32.932;-117.130;2023-08-30T07:41:19;3.67;;;2.58;;
60896;SDS011;46749;32.932;-117.130;2023-08-30T07:43:46;3.42;;;2.40;;
60896;SDS011;46749;32.932;-117.130;2023-08-30T07:46:12;3.42;;;2.35;;
60896;SDS011;46749;32.932;-117.130;2023-08-30T07:48:38;4.78;;;2.83;;
60896;SDS011;46749;32.932;-117.130;2023-08-30T07:51:04;5.90;;;2.72;;
60896;SDS011;46749;32.932;-117.130;2023-08-30T07:53:30;4.45;;;2.53;;
60896;SDS011;46749;32.932;-117.130;2023-08-30T07:55:56;4.13;;;2.60;;
60896;SDS011;46749;32.932;-117.130;2023-08-30T07:58:23;4.53;;;2.55;;
60896;SDS011;46749;32.932;-117.130;2023-08-30T08:00:51;4.68;;;3.05;;
60896;SDS011;46749;32.932;-117.130;2023-08-30T08:03:21;5.47;;;2.85;;
60896;SDS011;46749;32.932;-117.130;2023-08-30T08:05:47;3.42;;;2.80;;
60896;SDS011;46749;32.932;-117.130;2023-08-30T08:08:13;6.07;;;2.90;;
60896;SDS011;46749;32.932;-117.130;2023-08-30T08:10:40;3.75;;;2.72;;
60896;SDS011;46749;32.932;-117.130;2023-08-30T08:13:07;3.90;;;2.83;;
60896;SDS011;46749;32.932;-117.130;2023-08-30T08:15:34;4.78;;;3.03;;
60896;SDS011;46749;32.932;-117.130;2023-08-30T08:18:00;5.22;;;3.05;;
60896;SDS011;46749;32.932;-117.130;2023-08-30T08:20:28;3.88;;;2.60;;
60896;SDS011;46749;32.932;-117.130;2023-08-30T08:22:55;4.93;;;2.70;;
60896;SDS011;46749;32.932;-117.130;2023-08-30T08:25:21;3.58;;;2.53;;
60896;SDS011;46749;32.932;-117.130;2023-08-30T08:27:49;4.95;;;3.17;;
60896;SDS011;46749;32.932;-117.130;2023-08-30T08:30:16;4.65;;;2.53;;
60896;SDS011;46749;32.932;-117.130;2023-08-30T08:32:44;3.88;;;2.92;;
60896;SDS011;46749;32.932;-117.130;2023-08-30T08:35:11;3.15;;;2.45;;
60896;SDS011;46749;32.932;-117.130;2023-08-30T08:37:37;3.63;;;2.85;;
60896;SDS011;46749;32.932;-117.130;2023-08-30T08:40:03;4.28;;;2.88;;
60896;SDS011;46749;32.932;-117.130;2023-08-30T08:42:34;3.72;;;2.80;;
60896;SDS011;46749;32.932;-117.130;2023-08-30T08:45:04;5.07;;;3.00;;
60896;SDS011;46749;32.932;-117.130;2023-08-30T08:47:32;5.65;;;3.05;;
60896;SDS011;46749;32.932;-117.130;2023-08-30T08:49:59;5.18;;;2.85;;
60896;SDS011;46749;32.932;-117.130;2023-08-30T08:52:26;4.00;;;3.05;;
60896;SDS011;46749;32.932;-117.130;2023-08-30T08:54:52;4.00;;;2.78;;
60896;SDS011;46749;32.932;-117.130;2023-08-30T08:57:21;3.88;;;2.80;;
60896;SDS011;46749;32.932;-117.130;2023-08-30T08:59:47;3.60;;;2.88;;
60896;SDS011;46749;32.932;-117.130;2023-08-30T09:02:14;4.38;;;2.75;;
60896;SDS011;46749;32.932;-117.130;2023-08-30T09:04:40;4.97;;;2.95;;
60896;SDS011;46749;32.932;-117.130;2023-08-30T09:07:06;4.22;;;2.88;;
60896;SDS011;46749;32.932;-117.130;2023-08-30T09:09:33;4.40;;;2.90;;
60896;SDS011;46749;32.932;-117.130;2023-08-30T09:11:59;4.20;;;3.33;;
60896;SDS011;46749;32.932;-117.130;2023-08-30T09:14:26;4.22;;;2.97;;
60896;SDS011;46749;32.932;-117.130;2023-08-30T09:16:55;4.25;;;2.75;;
60896;SDS011;46749;32.932;-117.130;2023-08-30T09:21:55;4.05;;;2.80;;
60896;SDS011;46749;32.932;-117.130;2023-08-30T09:24:23;5.50;;;3.03;;
60896;SDS011;46749;32.932;-117.130;2023-08-30T09:26:53;4.60;;;3.20;;
60896;SDS011;46749;32.932;-117.130;2023-08-30T09:29:20;3.75;;;2.67;;
60896;SDS011;46749;32.932;-117.130;2023-08-30T09:31:51;6.10;;;3.80;;
60896;SDS011;46749;32.932;-117.130;2023-08-30T09:34:22;3.92;;;3.00;;
60896;SDS011;46749;32.932;-117.130;2023-08-30T09:36:49;4.40;;;2.78;;
60896;SDS011;46749;32.932;-117.130;2023-08-30T09:39:15;5.05;;;3.30;;
60896;SDS011;46749;32.932;-117.130;2023-08-30T09:41:42;5.78;;;3.65;;
60896;SDS011;46749;32.932;-117.130;2023-08-30T09:44:10;4.45;;;2.67;;
60896;SDS011;46749;32.932;-117.130;2023-08-30T09:49:12;4.65;;;3.05;;
60896;SDS011;46749;32.932;-117.130;2023-08-30T09:51:41;4.20;;;3.13;;
60896;SDS011;46749;32.932;-117.130;2023-08-30T09:54:13;4.35;;;3.08;;
60896;SDS011;46749;32.932;-117.130;2023-08-30T09:56:41;4.95;;;3.30;;
60896;SDS011;46749;32.932;-117.130;2023-08-30T09:59:11;5.05;;;3.13;;
60896;SDS011;46749;32.932;-117.130;2023-08-30T10:01:40;4.35;;;3.03;;
60896;SDS011;46749;32.932;-117.130;2023-08-30T10:04:08;5.15;;;3.40;;
60896;SDS011;46749;32.932;-117.130;2023-08-30T10:06:38;4.78;;;3.63;;
60896;SDS011;46749;32.932;-117.130;2023-08-30T10:09:06;4.88;;;3.20;;
60896;SDS011;46749;32.932;-117.130;2023-08-30T10:11:34;5.72;;;3.60;;
60896;SDS011;46749;32.932;-117.130;2023-08-30T10:14:04;5.00;;;3.40;;
60896;SDS011;46749;32.932;-117.130;2023-08-30T10:16:42;5.13;;;3.03;;
60896;SDS011;46749;32.932;-117.130;2023-08-30T10:19:16;4.30;;;3.33;;
60896;SDS011;46749;32.932;-117.130;2023-08-30T10:21:49;4.68;;;3.10;;
60896;SDS011;46749;32.932;-117.130;2023-08-30T10:24:34;3.45;;;2.70;;
60896;SDS011;46749;32.932;-117.130;2023-08-30T10:27:05;3.80;;;2.70;;
60896;SDS011;46749;32.932;-117.130;2023-08-30T10:29:34;5.60;;;3.40;;
60896;SDS011;46749;32.932;-117.130;2023-08-30T10:32:05;5.32;;;3.20;;
60896;SDS011;46749;32.932;-117.130;2023-08-30T10:34:33;5.57;;;3.00;;
60896;SDS011;46749;32.932;-117.130;2023-08-30T10:37:00;5.00;;;3.15;;
60896;SDS011;46749;32.932;-117.130;2023-08-30T10:39:35;5.03;;;3.30;;
60896;SDS011;46749;32.932;-117.130;2023-08-30T10:44:46;4.05;;;2.92;;
60896;SDS011;46749;32.932;-117.130;2023-08-30T10:47:22;4.70;;;3.33;;
60896;SDS011;46749;32.932;-117.130;2023-08-30T10:49:49;5.68;;;3.65;;
60896;SDS011;46749;32.932;-117.130;2023-08-30T10:52:15;3.90;;;2.92;;
60896;SDS011;46749;32.932;-117.130;2023-08-30T10:54:41;3.63;;;3.10;;
60896;SDS011;46749;32.932;-117.130;2023-08-30T10:57:14;4.65;;;3.50;;
60896;SDS011;46749;32.932;-117.130;2023-08-30T11:02:36;4.82;;;3.60;;
60896;SDS011;46749;32.932;-117.130;2023-08-30T11:05:03;3.67;;;2.88;;
60896;SDS011;46749;32.932;-117.130;2023-08-30T11:07:32;5.28;;;3.00;;
60896;SDS011;46749;32.932;-117.130;2023-08-30T11:09:59;5.90;;;3.10;;
60896;SDS011;46749;32.932;-117.130;2023-08-30T11:12:25;6.40;;;3.22;;
60896;SDS011;46749;32.932;-117.130;2023-08-30T11:14:52;4.78;;;3.42;;
60896;SDS011;46749;32.932;-117.130;2023-08-30T11:17:19;4.78;;;2.70;;
60896;SDS011;46749;32.932;-117.130;2023-08-30T11:19:46;5.78;;;3.72;;
60896;SDS011;46749;32.932;-117.130;2023-08-30T11:22:15;4.75;;;3.40;;
60896;SDS011;46749;32.932;-117.130;2023-08-30T11:24:42;4.75;;;3.08;;
60896;SDS011;46749;32.932;-117.130;2023-08-30T11:27:09;5.03;;;2.97;;
60896;SDS011;46749;32.932;-117.130;2023-08-30T11:29:35;4.95;;;3.38;;
60896;SDS011;46749;32.932;-117.130;2023-08-30T11:32:04;5.03;;;3.50;;
60896;SDS011;46749;32.932;-117.130;2023-08-30T11:34:33;5.07;;;3.28;;
60896;SDS011;46749;32.932;-117.130;2023-08-30T11:36:59;6.63;;;3.30;;
60896;SDS011;46749;32.932;-117.130;2023-08-30T11:39:28;5.38;;;3.35;;
60896;SDS011;46749;32.932;-117.130;2023-08-30T11:41:56;5.07;;;3.28;;
60896;SDS011;46749;32.932;-117.130;2023-08-30T11:44:28;4.75;;;3.45;;
60896;SDS011;46749;32.932;-117.130;2023-08-30T11:47:03;5.28;;;3.33;;
60896;SDS011;46749;32.932;-117.130;2023-08-30T11:49:29;5.22;;;3.45;;
60896;SDS011;46749;32.932;-117.130;2023-08-30T11:51:56;5.88;;;3.38;;
60896;SDS011;46749;32.932;-117.130;2023-08-30T11:54:23;5.18;;;3.30;;
60896;SDS011;46749;32.932;-117.130;2023-08-30T11:56:50;6.28;;;3.80;;
60896;SDS011;46749;32.932;-117.130;2023-08-30T11:59:20;4.50;;;3.22;;
60896;SDS011;46749;32.932;-117.130;2023-08-30T12:01:48;6.50;;;3.28;;
60896;SDS011;46749;32.932;-117.130;2023-08-30T12:04:14;4.50;;;2.90;;
60896;SDS011;46749;32.932;-117.130;2023-08-30T12:06:43;4.80;;;3.25;;
60896;SDS011;46749;32.932;-117.130;2023-08-30T12:09:17;5.60;;;3.70;;
60896;SDS011;46749;32.932;-117.130;2023-08-30T12:11:49;5.00;;;3.22;;
60896;SDS011;46749;32.932;-117.130;2023-08-30T12:14:15;7.13;;;3.40;;
60896;SDS011;46749;32.932;-117.130;2023-08-30T12:16:44;4.82;;;3.30;;
60896;SDS011;46749;32.932;-117.130;2023-08-30T12:19:12;4.35;;;3.17;;
60896;SDS011;46749;32.932;-117.130;2023-08-30T12:21:42;4.90;;;3.15;;
60896;SDS011;46749;32.932;-117.130;2023-08-30T12:24:09;4.00;;;3.13;;
60896;SDS011;46749;32.932;-117.130;2023-08-30T12:26:36;5.63;;;3.42;;
60896;SDS011;46749;32.932;-117.130;2023-08-30T12:29:05;4.50;;;3.75;;
60896;SDS011;46749;32.932;-117.130;2023-08-30T12:31:32;4.30;;;3.25;;
60896;SDS011;46749;32.932;-117.130;2023-08-30T12:33:58;6.35;;;3.83;;
60896;SDS011;46749;32.932;-117.130;2023-08-30T12:36:25;3.47;;;3.10;;
60896;SDS011;46749;32.932;-117.130;2023-08-30T12:38:51;5.22;;;3.83;;
60896;SDS011;46749;32.932;-117.130;2023-08-30T12:41:17;5.53;;;3.55;;
60896;SDS011;46749;32.932;-117.130;2023-08-30T12:43:46;4.57;;;3.55;;
60896;SDS011;46749;32.932;-117.130;2023-08-30T12:46:12;5.50;;;4.10;;
60896;SDS011;46749;32.932;-117.130;2023-08-30T12:48:38;5.45;;;3.63;;
60896;SDS011;46749;32.932;-117.130;2023-08-30T12:51:04;6.68;;;3.97;;
60896;SDS011;46749;32.932;-117.130;2023-08-30T12:53:30;6.00;;;3.95;;
60896;SDS011;46749;32.932;-117.130;2023-08-30T12:55:56;4.75;;;3.55;;
60896;SDS011;46749;32.932;-117.130;2023-08-30T12:58:22;5.22;;;3.53;;
60896;SDS011;46749;32.932;-117.130;2023-08-30T13:00:49;4.78;;;3.40;;
60896;SDS011;46749;32.932;-117.130;2023-08-30T13:03:15;5.30;;;3.67;;
60896;SDS011;46749;32.932;-117.130;2023-08-30T13:05:41;6.07;;;3.75;;
60896;SDS011;46749;32.932;-117.130;2023-08-30T13:08:07;3.92;;;3.45;;
60896;SDS011;46749;32.932;-117.130;2023-08-30T13:10:33;5.32;;;3.35;;
60896;SDS011;46749;32.932;-117.130;2023-08-30T13:13:00;7.07;;;4.20;;
60896;SDS011;46749;32.932;-117.130;2023-08-30T13:15:26;5.15;;;3.92;;
60896;SDS011;46749;32.932;-117.130;2023-08-30T13:17:52;5.50;;;3.63;;
60896;SDS011;46749;32.932;-117.130;2023-08-30T13:20:18;4.28;;;3.38;;
60896;SDS011;46749;32.932;-117.130;2023-08-30T13:22:45;4.93;;;3.70;;
60896;SDS011;46749;32.932;-117.130;2023-08-30T13:25:11;4.40;;;3.47;;
60896;SDS011;46749;32.932;-117.130;2023-08-30T13:27:37;4.97;;;3.50;;
60896;SDS011;46749;32.932;-117.130;2023-08-30T13:30:04;5.55;;;3.83;;
60896;SDS011;46749;32.932;-117.130;2023-08-30T13:32:30;6.22;;;3.55;;
60896;SDS011;46749;32.932;-117.130;2023-08-30T13:34:57;4.82;;;3.58;;
60896;SDS011;46749;32.932;-117.130;2023-08-30T13:37:23;6.30;;;3.90;;
60896;SDS011;46749;32.932;-117.130;2023-08-30T13:39:49;4.97;;;3.78;;
60896;SDS011;46749;32.932;-117.130;2023-08-30T13:42:17;5.78;;;3.63;;
60896;SDS011;46749;32.932;-117.130;2023-08-30T13:44:43;6.00;;;3.30;;
60896;SDS011;46749;32.932;-117.130;2023-08-30T13:47:10;5.65;;;3.55;;
60896;SDS011;46749;32.932;-117.130;2023-08-30T13:49:37;4.85;;;3.70;;
60896;SDS011;46749;32.932;-117.130;2023-08-30T13:52:03;5.65;;;4.22;;
60896;SDS011;46749;32.932;-117.130;2023-08-30T13:54:29;5.47;;;4.13;;
60896;SDS011;46749;32.932;-117.130;2023-08-30T13:56:57;5.50;;;3.55;;
60896;SDS011;46749;32.932;-117.130;2023-08-30T13:59:23;5.22;;;3.70;;
60896;SDS011;46749;32.932;-117.130;2023-08-30T14:01:49;5.50;;;3.50;;
60896;SDS011;46749;32.932;-117.130;2023-08-30T14:04:15;5.35;;;3.95;;
60896;SDS011;46749;32.932;-117.130;2023-08-30T14:06:42;3.92;;;3.47;;
60896;SDS011;46749;32.932;-117.130;2023-08-30T14:09:08;5.97;;;4.47;;
60896;SDS011;46749;32.932;-117.130;2023-08-30T14:11:34;4.35;;;3.58;;
60896;SDS011;46749;32.932;-117.130;2023-08-30T14:14:03;7.03;;;4.30;;
60896;SDS011;46749;32.932;-117.130;2023-08-30T14:16:29;6.95;;;3.85;;
60896;SDS011;46749;32.932;-117.130;2023-08-30T14:18:55;5.97;;;3.92;;
60896;SDS011;46749;32.932;-117.130;2023-08-30T14:21:25;6.47;;;3.92;;
60896;SDS011;46749;32.932;-117.130;2023-08-30T14:23:52;7.85;;;3.88;;
60896;SDS011;46749;32.932;-117.130;2023-08-30T14:26:19;7.32;;;4.20;;